Time;durP1;ratioP1;P1;durP2;ratioP2;P2;SDS_P1;SDS_P2;PMS_P1;PMS_P2;Temp;Humidity;BMP_temperature;BMP_pressure;BME280_temperature;BME280_humidity;BME280_pressure;Samples;Min_cycle;Max_cycle;Signal;HPM_P1;HPM_P2
2022/04/10 00:02:13;;;;;;;15.95;5.78;;;;;;;;;;5044750;28;20560;-83
2022/04/10 00:04:39;;;;;;;8.93;3.30;;;;;;;;;;5066029;28;20033;-80
2022/04/10 00:07:05;;;;;;;17.98;5.18;;;;;;;;;;5065237;28;20043;-82
2022/04/10 00:09:31;;;;;;;54.35;5.05;;;;;;;;;;5067772;28;20036;-81
2022/04/10 00:11:58;;;;;;;17.33;4.28;;;;;;;;;;5049265;28;20067;-83
2022/04/10 00:14:24;;;;;;;15.25;3.28;;;;;;;;;;5062743;28;20025;-82
2022/04/10 00:16:50;;;;;;;22.13;7.07;;;;;;;;;;5042875;28;20021;-83
2022/04/10 00:19:16;;;;;;;20.13;4.38;;;;;;;;;;5024731;28;20098;-82
2022/04/10 00:21:44;;;;;;;14.52;3.58;;;;;;;;;;5044413;28;20021;-83
2022/04/10 00:24:11;;;;;;;17.85;4.38;;;;;;;;;;5068725;28;20029;-82
2022/04/10 00:26:37;;;;;;;14.55;4.25;;;;;;;;;;5047237;28;20131;-83
2022/04/10 00:29:03;;;;;;;18.05;4.30;;;;;;;;;;5048283;28;20040;-83
2022/04/10 00:31:30;;;;;;;23.17;4.13;;;;;;;;;;5047807;28;20033;-83
2022/04/10 00:33:56;;;;;;;14.82;4.22;;;;;;;;;;5062756;28;20020;-83
2022/04/10 00:36:22;;;;;;;17.50;4.20;;;;;;;;;;5046843;28;20047;-82
2022/04/10 00:38:48;;;;;;;18.95;4.50;;;;;;;;;;5076499;28;20016;-82
2022/04/10 00:41:14;;;;;;;17.10;4.30;;;;;;;;;;5079474;28;20037;-83
2022/04/10 00:44:00;;;;;;;23.15;5.25;;;;;;;;;;5045983;28;20051;-83
2022/04/10 00:46:26;;;;;;;15.30;4.18;;;;;;;;;;5052715;28;20029;-84
2022/04/10 00:48:52;;;;;;;24.08;5.85;;;;;;;;;;5031858;28;20052;-84
2022/04/10 00:54:03;;;;;;;20.23;4.22;;;;;;;;;;5053680;28;20044;-82
2022/04/10 00:56:29;;;;;;;18.88;4.35;;;;;;;;;;5034996;28;20025;-84
2022/04/10 00:58:55;;;;;;;14.30;4.88;;;;;;;;;;5032443;28;20041;-83
2022/04/10 01:01:21;;;;;;;25.15;4.97;;;;;;;;;;5024349;28;20028;-82
2022/04/10 01:03:47;;;;;;;15.65;4.88;;;;;;;;;;5052052;28;20083;-82
2022/04/10 01:06:14;;;;;;;23.92;6.05;;;;;;;;;;5052867;28;20077;-83
2022/04/10 01:08:40;;;;;;;24.70;6.18;;;;;;;;;;5045959;28;20104;-82
2022/04/10 01:11:07;;;;;;;22.13;6.28;;;;;;;;;;5043809;28;20108;-83
2022/04/10 01:13:33;;;;;;;20.35;4.22;;;;;;;;;;5043420;28;20077;-82
2022/04/10 01:15:59;;;;;;;19.13;4.22;;;;;;;;;;5033881;28;20101;-82
2022/04/10 01:18:25;;;;;;;18.85;4.80;;;;;;;;;;5043074;28;20061;-83
2022/04/10 01:20:52;;;;;;;18.05;4.53;;;;;;;;;;5041279;28;20026;-83
2022/04/10 01:23:18;;;;;;;19.63;5.80;;;;;;;;;;5022766;28;20041;-82
2022/04/10 01:25:44;;;;;;;16.33;4.32;;;;;;;;;;5043582;28;20033;-81
2022/04/10 01:28:11;;;;;;;13.30;4.53;;;;;;;;;;5040800;28;20124;-82
2022/04/10 01:30:38;;;;;;;14.68;4.35;;;;;;;;;;5047168;28;20034;-82
2022/04/10 01:33:05;;;;;;;26.75;5.93;;;;;;;;;;5024736;28;20121;-82
2022/04/10 01:35:32;;;;;;;18.45;4.45;;;;;;;;;;5026346;28;20040;-82
2022/04/10 01:37:59;;;;;;;18.77;4.93;;;;;;;;;;5049787;28;20039;-82
2022/04/10 01:40:25;;;;;;;15.15;4.32;;;;;;;;;;5031063;28;20474;-82
2022/04/10 01:42:51;;;;;;;17.92;4.28;;;;;;;;;;5026968;28;20044;-81
2022/04/10 01:45:18;;;;;;;18.83;4.32;;;;;;;;;;5026208;28;20053;-82
2022/04/10 01:47:44;;;;;;;20.17;4.18;;;;;;;;;;5008811;28;20180;-83
2022/04/10 01:50:11;;;;;;;21.67;4.10;;;;;;;;;;5021915;28;20034;-83
2022/04/10 01:52:37;;;;;;;15.13;4.63;;;;;;;;;;5043163;28;20056;-83
2022/04/10 01:55:03;;;;;;;29.20;4.97;;;;;;;;;;5042601;28;20029;-82
2022/04/10 01:57:29;;;;;;;19.30;4.00;;;;;;;;;;5044049;28;20095;-82
2022/04/10 01:59:55;;;;;;;24.20;4.57;;;;;;;;;;5045057;28;20028;-83
2022/04/10 02:02:21;;;;;;;19.80;4.53;;;;;;;;;;5044546;28;20033;-83
2022/04/10 02:04:47;;;;;;;25.40;4.97;;;;;;;;;;5041486;28;20048;-82
2022/04/10 02:07:13;;;;;;;22.52;4.65;;;;;;;;;;5048132;28;20040;-82
2022/04/10 02:09:39;;;;;;;13.65;4.38;;;;;;;;;;5015247;28;20049;-81
2022/04/10 02:12:05;;;;;;;15.70;4.18;;;;;;;;;;5042713;28;20039;-82
2022/04/10 02:14:31;;;;;;;20.23;4.70;;;;;;;;;;5039387;28;20041;-82
2022/04/10 02:16:57;;;;;;;20.05;4.60;;;;;;;;;;5045916;28;20017;-82
2022/04/10 02:19:23;;;;;;;15.07;4.47;;;;;;;;;;5027206;28;20490;-82
2022/04/10 02:21:49;;;;;;;22.58;4.50;;;;;;;;;;5051936;28;20115;-82
2022/04/10 02:24:16;;;;;;;21.52;4.60;;;;;;;;;;5041778;28;20041;-82
2022/04/10 02:26:42;;;;;;;22.77;4.05;;;;;;;;;;5031432;28;20013;-81
2022/04/10 02:29:08;;;;;;;22.92;4.45;;;;;;;;;;5026177;28;20039;-82
2022/04/10 02:31:34;;;;;;;20.73;3.90;;;;;;;;;;5047026;28;20041;-83
2022/04/10 02:34:00;;;;;;;18.98;4.18;;;;;;;;;;5053287;28;20042;-82
2022/04/10 02:36:26;;;;;;;20.23;3.70;;;;;;;;;;5050848;28;20101;-82
2022/04/10 02:38:52;;;;;;;18.15;3.80;;;;;;;;;;5047409;28;20040;-83
2022/04/10 02:41:18;;;;;;;19.95;4.43;;;;;;;;;;5035997;28;20029;-81
2022/04/10 02:43:44;;;;;;;12.65;3.67;;;;;;;;;;5056548;28;20083;-82
2022/04/10 02:46:10;;;;;;;18.27;3.88;;;;;;;;;;5054864;28;20108;-82
2022/04/10 02:48:36;;;;;;;14.23;4.22;;;;;;;;;;5071748;28;20057;-81
2022/04/10 02:51:02;;;;;;;18.50;4.25;;;;;;;;;;5056254;28;20040;-82
2022/04/10 02:53:29;;;;;;;24.23;4.25;;;;;;;;;;5069995;28;20032;-82
2022/04/10 02:55:55;;;;;;;22.33;4.88;;;;;;;;;;5071988;28;20064;-82
2022/04/10 02:58:21;;;;;;;21.23;4.18;;;;;;;;;;5070536;28;20067;-82
2022/04/10 03:00:48;;;;;;;16.73;4.07;;;;;;;;;;5071013;28;20028;-82
2022/04/10 03:03:14;;;;;;;18.02;3.55;;;;;;;;;;5069573;28;20017;-81
2022/04/10 03:05:40;;;;;;;15.00;3.80;;;;;;;;;;5066457;28;20037;-81
2022/04/10 03:08:06;;;;;;;14.30;3.15;;;;;;;;;;5071618;28;20025;-83
2022/04/10 03:10:32;;;;;;;17.70;4.15;;;;;;;;;;5059308;28;20033;-82
2022/04/10 03:12:58;;;;;;;15.70;4.05;;;;;;;;;;5055716;28;20127;-83
2022/04/10 03:15:24;;;;;;;19.92;3.63;;;;;;;;;;5057150;28;20332;-83
2022/04/10 03:17:50;;;;;;;16.83;3.42;;;;;;;;;;5048265;28;20029;-83
2022/04/10 03:20:16;;;;;;;19.63;3.45;;;;;;;;;;5076705;28;20040;-83
2022/04/10 03:22:42;;;;;;;11.25;3.85;;;;;;;;;;5069533;28;20040;-82
2022/04/10 03:25:09;;;;;;;19.92;4.18;;;;;;;;;;5072099;28;20031;-82
2022/04/10 03:27:35;;;;;;;18.52;3.85;;;;;;;;;;5073909;28;20032;-83
2022/04/10 03:30:01;;;;;;;15.00;3.40;;;;;;;;;;5048614;28;20032;-81
2022/04/10 03:32:27;;;;;;;23.17;4.53;;;;;;;;;;5065621;28;20029;-82
2022/04/10 03:34:53;;;;;;;25.75;4.15;;;;;;;;;;5069444;28;20041;-82
2022/04/10 03:37:19;;;;;;;11.50;3.05;;;;;;;;;;5065627;28;20039;-83
2022/04/10 03:39:45;;;;;;;18.63;3.47;;;;;;;;;;5072856;28;20510;-82
2022/04/10 03:42:13;;;;;;;15.10;3.92;;;;;;;;;;5066067;28;20033;-83
2022/04/10 03:44:39;;;;;;;17.02;3.47;;;;;;;;;;5072208;28;20064;-82
2022/04/10 03:47:05;;;;;;;16.33;4.25;;;;;;;;;;5073652;28;20041;-82
2022/04/10 03:49:31;;;;;;;20.58;4.57;;;;;;;;;;5050568;28;20062;-81
2022/04/10 03:51:57;;;;;;;10.57;3.10;;;;;;;;;;5068528;28;20024;-82
2022/04/10 03:54:23;;;;;;;21.92;5.60;;;;;;;;;;5047652;28;20091;-81
2022/04/10 03:56:49;;;;;;;21.75;3.45;;;;;;;;;;5072101;28;20033;-81
2022/04/10 03:59:15;;;;;;;20.60;3.65;;;;;;;;;;5061040;28;20540;-82
2022/04/10 04:01:41;;;;;;;23.50;4.25;;;;;;;;;;5058668;28;20036;-82
2022/04/10 04:04:07;;;;;;;14.43;3.58;;;;;;;;;;5045091;28;20033;-81
2022/04/10 04:06:34;;;;;;;12.13;3.20;;;;;;;;;;5064362;28;20013;-81
2022/04/10 04:08:59;;;;;;;29.38;4.88;;;;;;;;;;5061460;28;20086;-82
2022/04/10 04:11:25;;;;;;;24.00;3.70;;;;;;;;;;5041525;28;20181;-82
2022/04/10 04:13:51;;;;;;;13.50;3.28;;;;;;;;;;5041975;28;20033;-81
2022/04/10 04:16:21;;;;;;;15.20;3.08;;;;;;;;;;5058190;28;20095;-82
2022/04/10 04:18:47;;;;;;;16.95;4.60;;;;;;;;;;5053470;28;20025;-81
2022/04/10 04:21:13;;;;;;;23.65;3.75;;;;;;;;;;5046875;28;20028;-78
2022/04/10 04:23:39;;;;;;;18.65;4.53;;;;;;;;;;5071624;28;20051;-78
2022/04/10 04:26:05;;;;;;;20.75;3.97;;;;;;;;;;5048902;28;20036;-78
2022/04/10 04:28:32;;;;;;;12.18;3.03;;;;;;;;;;5062560;28;20029;-79
2022/04/10 04:30:58;;;;;;;9.73;3.03;;;;;;;;;;5065185;28;20542;-81
2022/04/10 04:33:24;;;;;;;11.65;2.80;;;;;;;;;;5065390;28;20362;-81
2022/04/10 04:35:50;;;;;;;5.78;2.00;;;;;;;;;;5071945;28;20048;-82
2022/04/10 04:38:17;;;;;;;9.43;2.15;;;;;;;;;;5068705;28;20039;-83
2022/04/10 04:40:43;;;;;;;11.50;2.35;;;;;;;;;;5057573;28;20040;-82
2022/04/10 04:43:10;;;;;;;15.50;3.05;;;;;;;;;;5067262;28;20028;-82
2022/04/10 04:45:36;;;;;;;5.72;2.45;;;;;;;;;;5055044;28;20052;-82
2022/04/10 04:48:02;;;;;;;7.43;2.45;;;;;;;;;;5043785;28;20032;-82
2022/04/10 04:50:29;;;;;;;10.82;2.08;;;;;;;;;;5054182;28;20040;-82
2022/04/10 04:52:55;;;;;;;23.85;5.50;;;;;;;;;;5026649;28;20044;-83
2022/04/10 04:55:21;;;;;;;13.05;2.88;;;;;;;;;;5024255;28;20410;-82
2022/04/10 04:57:47;;;;;;;8.15;2.58;;;;;;;;;;5023791;28;20013;-82
2022/04/10 05:00:13;;;;;;;10.00;2.10;;;;;;;;;;5025942;28;20083;-82
2022/04/10 05:02:39;;;;;;;6.50;2.05;;;;;;;;;;5024207;28;20064;-82
2022/04/10 05:05:07;;;;;;;11.20;3.00;;;;;;;;;;5011396;28;20029;-81
2022/04/10 05:07:33;;;;;;;5.60;2.00;;;;;;;;;;5046044;28;20029;-82
2022/04/10 05:09:59;;;;;;;9.68;2.58;;;;;;;;;;5048553;28;20140;-82
2022/04/10 05:12:26;;;;;;;12.63;2.83;;;;;;;;;;5042992;28;20083;-81
2022/04/10 05:14:52;;;;;;;12.98;2.88;;;;;;;;;;5041238;28;20034;-81
2022/04/10 05:17:18;;;;;;;13.57;4.00;;;;;;;;;;5033183;28;20116;-81
2022/04/10 05:19:44;;;;;;;10.63;3.42;;;;;;;;;;5044628;28;20405;-81
2022/04/10 05:22:10;;;;;;;19.00;3.88;;;;;;;;;;5027278;28;20108;-82
2022/04/10 05:24:36;;;;;;;14.48;3.45;;;;;;;;;;5047337;28;20037;-82
2022/04/10 05:27:02;;;;;;;12.43;3.80;;;;;;;;;;5022128;28;20059;-82
2022/04/10 05:29:28;;;;;;;14.73;4.38;;;;;;;;;;5018962;28;20060;-82
2022/04/10 05:31:54;;;;;;;12.38;3.50;;;;;;;;;;5034708;28;20550;-82
2022/04/10 05:34:20;;;;;;;19.90;3.92;;;;;;;;;;5047459;28;20028;-82
2022/04/10 05:36:46;;;;;;;12.82;3.47;;;;;;;;;;5047468;28;20433;-82
2022/04/10 05:39:12;;;;;;;15.98;2.90;;;;;;;;;;5050400;28;20040;-80
2022/04/10 05:41:38;;;;;;;15.10;2.70;;;;;;;;;;5055807;28;20527;-82
2022/04/10 05:44:04;;;;;;;11.60;3.70;;;;;;;;;;5035968;28;20044;-82
2022/04/10 05:46:30;;;;;;;8.50;2.35;;;;;;;;;;5069138;28;20119;-82
2022/04/10 05:48:56;;;;;;;9.45;2.50;;;;;;;;;;5048701;28;20068;-81
2022/04/10 05:51:22;;;;;;;11.40;2.78;;;;;;;;;;5071178;28;20056;-81
2022/04/10 05:53:48;;;;;;;13.48;2.65;;;;;;;;;;5045154;28;20036;-83
2022/04/10 05:56:15;;;;;;;7.78;2.80;;;;;;;;;;5066661;28;20032;-83
2022/04/10 05:58:41;;;;;;;12.57;2.53;;;;;;;;;;5050099;28;20025;-81
2022/04/10 06:01:07;;;;;;;17.80;2.95;;;;;;;;;;5042698;28;20025;-80
2022/04/10 06:03:33;;;;;;;10.82;2.92;;;;;;;;;;5050134;28;20505;-80
2022/04/10 06:05:59;;;;;;;10.48;3.15;;;;;;;;;;5042694;28;20032;-80
2022/04/10 06:08:25;;;;;;;11.40;2.92;;;;;;;;;;5073151;28;20508;-81
2022/04/10 06:10:51;;;;;;;11.07;2.60;;;;;;;;;;5076752;28;20024;-82
2022/04/10 06:13:17;;;;;;;12.85;2.35;;;;;;;;;;5045967;28;20055;-82
2022/04/10 06:15:43;;;;;;;14.30;2.72;;;;;;;;;;5049290;28;20036;-83
2022/04/10 06:18:09;;;;;;;11.18;2.97;;;;;;;;;;5057553;28;20024;-80
2022/04/10 06:20:35;;;;;;;5.80;2.60;;;;;;;;;;5070730;28;20036;-81
2022/04/10 06:23:01;;;;;;;13.20;2.67;;;;;;;;;;5074686;28;20028;-82
2022/04/10 06:25:28;;;;;;;11.80;3.17;;;;;;;;;;5074406;28;20561;-83
2022/04/10 06:27:56;;;;;;;8.30;2.78;;;;;;;;;;5052279;28;20021;-83
2022/04/10 06:30:22;;;;;;;9.13;2.83;;;;;;;;;;5079964;28;20031;-84
2022/04/10 06:32:48;;;;;;;17.65;2.88;;;;;;;;;;5052294;28;20032;-86
2022/04/10 06:35:14;;;;;;;11.85;2.78;;;;;;;;;;5053700;28;20040;-82
2022/04/10 06:37:42;;;;;;;11.65;3.25;;;;;;;;;;5065381;28;20029;-81
2022/04/10 06:40:08;;;;;;;11.48;2.78;;;;;;;;;;5060568;28;20035;-79
2022/04/10 06:42:34;;;;;;;8.35;2.92;;;;;;;;;;5061095;28;20028;-80
2022/04/10 06:45:00;;;;;;;8.05;2.63;;;;;;;;;;5022540;28;20053;-79
2022/04/10 06:47:31;;;;;;;11.35;3.42;;;;;;;;;;5049681;28;20040;-80
2022/04/10 06:49:57;;;;;;;12.43;3.00;;;;;;;;;;5063014;28;20114;-81
2022/04/10 06:52:23;;;;;;;9.93;2.50;;;;;;;;;;5059983;28;20036;-80
2022/04/10 06:54:49;;;;;;;10.43;2.90;;;;;;;;;;5045248;28;20036;-80
2022/04/10 06:57:15;;;;;;;12.20;2.42;;;;;;;;;;5053592;28;20036;-79
2022/04/10 06:59:41;;;;;;;5.47;2.60;;;;;;;;;;5041212;28;20021;-80
2022/04/10 07:02:07;;;;;;;8.20;1.90;;;;;;;;;;5066882;28;20429;-79
2022/04/10 07:04:34;;;;;;;7.68;1.73;;;;;;;;;;5063271;28;20041;-80
2022/04/10 07:07:00;;;;;;;10.70;2.38;;;;;;;;;;5067490;28;20107;-79
2022/04/10 07:09:26;;;;;;;6.45;2.15;;;;;;;;;;5082915;28;20067;-79
2022/04/10 07:11:52;;;;;;;6.05;1.95;;;;;;;;;;5058849;28;20069;-79
2022/04/10 07:14:18;;;;;;;8.85;1.92;;;;;;;;;;5072953;28;20027;-79
2022/04/10 07:16:44;;;;;;;6.10;1.98;;;;;;;;;;5046883;28;20036;-81
2022/04/10 07:19:10;;;;;;;5.20;1.65;;;;;;;;;;5048301;28;20040;-80
2022/04/10 07:24:21;;;;;;;7.43;1.70;;;;;;;;;;5071953;28;20055;-81
2022/04/10 07:26:47;;;;;;;6.88;1.42;;;;;;;;;;5074226;28;20008;-79
2022/04/10 07:29:13;;;;;;;4.70;1.50;;;;;;;;;;5061293;28;20439;-82
2022/04/10 07:31:42;;;;;;;7.20;1.55;;;;;;;;;;5063033;28;20215;-81
2022/04/10 07:34:08;;;;;;;11.23;2.10;;;;;;;;;;5046638;28;20047;-82
2022/04/10 07:36:34;;;;;;;9.48;2.20;;;;;;;;;;5045197;28;20036;-81
2022/04/10 07:39:00;;;;;;;5.10;1.50;;;;;;;;;;5050171;28;20028;-80
2022/04/10 07:41:26;;;;;;;6.63;1.55;;;;;;;;;;5037400;28;20041;-80
2022/04/10 07:43:52;;;;;;;6.85;1.70;;;;;;;;;;5043790;28;20009;-84
2022/04/10 07:49:03;;;;;;;7.97;2.30;;;;;;;;;;5045796;28;20044;-82
2022/04/10 07:51:29;;;;;;;4.93;1.58;;;;;;;;;;5047388;28;20038;-84
2022/04/10 07:53:56;;;;;;;6.78;2.40;;;;;;;;;;5043454;28;20425;-79
2022/04/10 07:56:23;;;;;;;9.07;2.00;;;;;;;;;;5034278;28;20032;-82
2022/04/10 07:58:49;;;;;;;8.98;2.15;;;;;;;;;;5037874;28;20025;-83
2022/04/10 08:01:15;;;;;;;7.22;1.92;;;;;;;;;;5029680;28;20040;-82
2022/04/10 08:03:41;;;;;;;7.50;2.03;;;;;;;;;;5044676;28;20096;-82
2022/04/10 08:06:07;;;;;;;10.13;1.83;;;;;;;;;;5025208;28;20028;-81
2022/04/10 08:08:34;;;;;;;7.40;1.73;;;;;;;;;;5023955;28;20026;-82
2022/04/10 08:11:00;;;;;;;7.18;2.15;;;;;;;;;;5029739;28;20495;-81
2022/04/10 08:13:26;;;;;;;11.70;2.38;;;;;;;;;;5047183;28;20029;-81
2022/04/10 08:15:52;;;;;;;7.75;2.00;;;;;;;;;;5030888;28;20036;-80
2022/04/10 08:18:18;;;;;;;10.38;2.60;;;;;;;;;;5041569;28;20060;-81
2022/04/10 08:20:44;;;;;;;11.07;2.40;;;;;;;;;;5041697;28;20033;-82
2022/04/10 08:23:10;;;;;;;9.52;2.22;;;;;;;;;;5022907;28;20033;-83
2022/04/10 08:25:36;;;;;;;9.88;2.10;;;;;;;;;;5019842;28;20040;-81
2022/04/10 08:28:02;;;;;;;9.57;2.00;;;;;;;;;;5030834;28;20540;-81
2022/04/10 08:30:28;;;;;;;11.88;1.92;;;;;;;;;;5037377;28;20037;-77
2022/04/10 08:32:54;;;;;;;7.88;1.92;;;;;;;;;;5018812;28;20398;-82
2022/04/10 08:35:21;;;;;;;8.73;2.40;;;;;;;;;;5014319;28;20117;-82
2022/04/10 08:37:48;;;;;;;9.02;2.42;;;;;;;;;;5044420;28;20017;-82
2022/04/10 08:40:14;;;;;;;12.63;2.17;;;;;;;;;;5023528;28;20028;-81
2022/04/10 08:42:41;;;;;;;9.00;2.10;;;;;;;;;;5045994;28;20777;-83
2022/04/10 08:45:08;;;;;;;13.07;1.83;;;;;;;;;;5033068;28;20406;-84
2022/04/10 08:47:38;;;;;;;9.00;2.00;;;;;;;;;;5050352;28;20506;-81
2022/04/10 08:50:05;;;;;;;18.95;3.65;;;;;;;;;;5047992;28;20060;-77
2022/04/10 08:52:31;;;;;;;9.45;2.08;;;;;;;;;;5042300;28;20076;-83
2022/04/10 08:54:57;;;;;;;8.52;2.30;;;;;;;;;;5047324;28;20031;-82
2022/04/10 08:57:24;;;;;;;10.77;2.00;;;;;;;;;;5059987;28;20116;-80
2022/04/10 08:59:50;;;;;;;11.48;1.95;;;;;;;;;;5029789;28;20025;-81
2022/04/10 09:02:16;;;;;;;6.72;1.70;;;;;;;;;;5034457;28;20096;-81
2022/04/10 09:04:42;;;;;;;10.35;1.50;;;;;;;;;;5055920;28;20028;-82
2022/04/10 09:07:09;;;;;;;10.65;1.90;;;;;;;;;;5034283;28;20041;-80
2022/04/10 09:09:36;;;;;;;9.35;1.85;;;;;;;;;;5059456;28;20041;-80
2022/04/10 09:12:03;;;;;;;9.60;1.80;;;;;;;;;;5050144;28;20163;-83
2022/04/10 09:14:36;;;;;;;6.35;2.35;;;;;;;;;;5047439;28;20024;-81
2022/04/10 09:17:18;;;;;;;13.65;1.80;;;;;;;;;;5046930;28;20064;-80
2022/04/10 09:19:46;;;;;;;7.93;2.75;;;;;;;;;;5040491;28;20489;-84
2022/04/10 09:22:26;;;;;;;9.98;1.80;;;;;;;;;;5027436;28;20517;-84
2022/04/10 09:25:11;;;;;;;10.38;2.28;;;;;;;;;;5042493;28;20095;-82
2022/04/10 09:27:44;;;;;;;9.27;2.10;;;;;;;;;;5050280;28;20083;-83
2022/04/10 09:30:19;;;;;;;9.45;2.00;;;;;;;;;;5051957;28;20017;-81
2022/04/10 09:32:51;;;;;;;12.35;2.88;;;;;;;;;;5039723;28;20053;-81
2022/04/10 09:35:17;;;;;;;10.30;2.08;;;;;;;;;;5037694;28;20056;-80
2022/04/10 09:37:53;;;;;;;9.20;2.08;;;;;;;;;;5035103;28;20029;-81
2022/04/10 09:40:21;;;;;;;6.95;1.88;;;;;;;;;;5036260;28;20441;-79
2022/04/10 09:42:49;;;;;;;8.98;1.73;;;;;;;;;;5044625;28;20083;-80
2022/04/10 09:45:28;;;;;;;5.85;1.30;;;;;;;;;;5020949;28;20109;-80
2022/04/10 09:47:54;;;;;;;5.05;1.48;;;;;;;;;;5041023;28;20044;-84
2022/04/10 09:50:30;;;;;;;8.63;2.28;;;;;;;;;;5043907;28;20025;-82
2022/04/10 09:52:56;;;;;;;4.78;1.23;;;;;;;;;;5057602;28;20017;-82
2022/04/10 09:55:41;;;;;;;5.00;1.73;;;;;;;;;;5055649;28;20029;-80
2022/04/10 09:58:10;;;;;;;10.07;1.90;;;;;;;;;;5038293;28;20025;-80
2022/04/10 10:00:37;;;;;;;6.72;1.48;;;;;;;;;;5019649;28;20053;-81
2022/04/10 10:03:05;;;;;;;7.10;1.10;;;;;;;;;;5056967;28;20045;-80
2022/04/10 10:05:31;;;;;;;5.90;1.35;;;;;;;;;;5049068;28;20033;-79
2022/04/10 10:07:58;;;;;;;5.03;0.98;;;;;;;;;;5020528;28;20403;-77
2022/04/10 10:10:25;;;;;;;6.82;1.38;;;;;;;;;;5039971;28;20037;-78
2022/04/10 10:12:52;;;;;;;9.30;1.48;;;;;;;;;;5045985;28;20044;-79
2022/04/10 10:15:18;;;;;;;7.72;1.52;;;;;;;;;;5036686;28;20048;-82
2022/04/10 10:17:44;;;;;;;6.90;1.50;;;;;;;;;;5030996;28;20379;-79
2022/04/10 10:20:11;;;;;;;7.93;1.63;;;;;;;;;;5040181;28;20100;-81
2022/04/10 10:22:37;;;;;;;11.10;1.48;;;;;;;;;;5048588;28;20028;-80
2022/04/10 10:25:07;;;;;;;6.72;1.60;;;;;;;;;;5042045;28;20056;-79
2022/04/10 10:27:42;;;;;;;7.22;1.42;;;;;;;;;;5022923;28;20029;-81
2022/04/10 10:30:18;;;;;;;5.45;1.20;;;;;;;;;;5041318;28;20025;-78
2022/04/10 10:32:49;;;;;;;6.45;1.33;;;;;;;;;;5045102;28;20056;-80
2022/04/10 10:35:35;;;;;;;6.82;1.33;;;;;;;;;;5040498;28;20098;-81
2022/04/10 10:38:01;;;;;;;8.57;1.77;;;;;;;;;;5052698;28;20033;-79
2022/04/10 10:40:27;;;;;;;10.52;1.85;;;;;;;;;;5035202;28;20095;-79
2022/04/10 10:42:58;;;;;;;8.45;1.83;;;;;;;;;;5056529;28;20029;-78
2022/04/10 10:45:41;;;;;;;5.13;1.25;;;;;;;;;;5073762;28;20040;-83
2022/04/10 10:48:25;;;;;;;6.53;1.90;;;;;;;;;;5042003;28;20047;-81
2022/04/10 10:50:55;;;;;;;7.18;1.98;;;;;;;;;;5041818;28;20079;-80
2022/04/10 10:53:42;;;;;;;6.10;1.23;;;;;;;;;;5059660;28;20052;-80
2022/04/10 10:56:12;;;;;;;7.18;1.42;;;;;;;;;;5045237;28;20053;-81
2022/04/10 10:58:40;;;;;;;8.70;2.10;;;;;;;;;;5056228;28;20032;-79
2022/04/10 11:01:07;;;;;;;7.70;1.70;;;;;;;;;;5061948;28;20097;-80
2022/04/10 11:03:33;;;;;;;5.65;1.30;;;;;;;;;;5054109;28;20017;-81
2022/04/10 11:06:06;;;;;;;7.30;1.70;;;;;;;;;;5055728;28;20025;-78
2022/04/10 11:08:42;;;;;;;9.98;1.88;;;;;;;;;;5040938;28;20028;-80
2022/04/10 11:11:08;;;;;;;5.47;1.30;;;;;;;;;;5046078;28;20037;-80
2022/04/10 11:13:44;;;;;;;7.95;1.95;;;;;;;;;;5072292;28;20037;-80
2022/04/10 11:16:10;;;;;;;7.25;1.40;;;;;;;;;;5073166;28;20027;-81
2022/04/10 11:18:41;;;;;;;5.70;1.23;;;;;;;;;;5058647;28;20025;-79
2022/04/10 11:21:07;;;;;;;;;;;;;;;;;;5069089;28;20031;-78
2022/04/10 11:23:39;;;;;;;6.93;1.60;;;;;;;;;;5058621;28;19908;-79
2022/04/10 11:26:09;;;;;;;11.93;1.50;;;;;;;;;;5055665;28;20067;-80
2022/04/10 11:28:54;;;;;;;5.93;1.90;;;;;;;;;;5053479;28;20033;-84
2022/04/10 11:31:31;;;;;;;9.38;1.63;;;;;;;;;;5053474;28;20033;-79
2022/04/10 11:34:18;;;;;;;6.78;1.63;;;;;;;;;;5054569;28;20029;-81
2022/04/10 11:36:45;;;;;;;8.32;1.40;;;;;;;;;;5049594;28;20018;-80
2022/04/10 11:39:11;;;;;;;6.78;1.50;;;;;;;;;;5039635;28;20095;-81
2022/04/10 11:41:38;;;;;;;5.05;1.25;;;;;;;;;;5038620;28;20514;-81
2022/04/10 11:44:08;;;;;;;5.93;1.20;;;;;;;;;;5061801;28;20047;-79
2022/04/10 11:46:37;;;;;;;4.47;1.17;;;;;;;;;;5051187;28;20079;-81
2022/04/10 11:49:03;;;;;;;4.72;1.10;;;;;;;;;;5060602;28;20041;-79
2022/04/10 11:51:29;;;;;;;8.85;1.50;;;;;;;;;;5062413;28;20067;-79
2022/04/10 11:53:56;;;;;;;4.63;1.08;;;;;;;;;;5060689;28;20052;-81
2022/04/10 11:56:22;;;;;;;3.88;1.30;;;;;;;;;;5060705;28;20035;-80
2022/04/10 11:58:48;;;;;;;5.35;1.50;;;;;;;;;;5033449;28;20024;-80
2022/04/10 12:01:15;;;;;;;5.45;1.40;;;;;;;;;;5037941;28;20096;-84
2022/04/10 12:03:43;;;;;;;6.82;1.25;;;;;;;;;;5047474;28;20036;-83
2022/04/10 12:06:09;;;;;;;6.38;1.60;;;;;;;;;;5059376;28;20338;-82
2022/04/10 12:08:36;;;;;;;5.82;1.23;;;;;;;;;;5063468;28;20071;-84
2022/04/10 12:11:03;;;;;;;5.55;1.80;;;;;;;;;;5062931;28;20230;-82
2022/04/10 12:13:29;;;;;;;7.70;1.63;;;;;;;;;;5046096;28;20041;-82
2022/04/10 12:16:02;;;;;;;9.43;1.42;;;;;;;;;;5043517;28;20032;-82
2022/04/10 12:18:28;;;;;;;7.18;1.42;;;;;;;;;;5045815;28;20017;-83
2022/04/10 12:21:01;;;;;;;5.82;1.40;;;;;;;;;;5068184;28;20040;-82
2022/04/10 12:23:28;;;;;;;8.10;1.15;;;;;;;;;;5068272;28;20091;-86
2022/04/10 12:25:55;;;;;;;5.10;1.30;;;;;;;;;;5064495;28;20039;-84
2022/04/10 12:28:23;;;;;;;5.38;1.27;;;;;;;;;;5065237;28;20097;-84
2022/04/10 12:30:50;;;;;;;6.97;1.80;;;;;;;;;;5042832;28;20037;-82
2022/04/10 12:33:16;;;;;;;8.48;1.65;;;;;;;;;;5068178;28;20036;-82
2022/04/10 12:35:43;;;;;;;5.72;1.75;;;;;;;;;;5061002;28;20494;-84
2022/04/10 12:38:11;;;;;;;6.20;1.77;;;;;;;;;;5050049;28;20020;-84
2022/04/10 12:40:37;;;;;;;6.00;1.20;;;;;;;;;;5068927;28;20048;-84
2022/04/10 12:43:04;;;;;;;8.20;1.73;;;;;;;;;;5060221;28;20037;-81
2022/04/10 12:45:32;;;;;;;5.57;1.33;;;;;;;;;;5061375;28;20045;-83
2022/04/10 12:47:58;;;;;;;4.50;1.38;;;;;;;;;;5050135;28;20020;-82
2022/04/10 12:50:25;;;;;;;7.72;2.33;;;;;;;;;;5066637;28;20024;-84
2022/04/10 12:52:55;;;;;;;4.88;1.20;;;;;;;;;;5066359;28;20035;-83
2022/04/10 12:55:24;;;;;;;8.63;2.10;;;;;;;;;;5040291;28;20097;-81
2022/04/10 12:57:54;;;;;;;8.43;1.55;;;;;;;;;;5044719;28;20040;-84
2022/04/10 13:00:32;;;;;;;8.93;1.60;;;;;;;;;;5055572;28;20572;-84
2022/04/10 13:02:59;;;;;;;8.35;1.38;;;;;;;;;;5058857;28;20040;-84
2022/04/10 13:05:25;;;;;;;5.90;1.60;;;;;;;;;;5060864;28;20028;-85
2022/04/10 13:07:58;;;;;;;4.75;1.20;;;;;;;;;;5041466;28;20025;-84
2022/04/10 13:10:25;;;;;;;7.28;1.33;;;;;;;;;;5066456;28;20043;-85
2022/04/10 13:13:02;;;;;;;8.68;1.50;;;;;;;;;;5065156;28;20044;-81
2022/04/10 13:15:35;;;;;;;8.15;2.03;;;;;;;;;;5043030;28;20193;-83
2022/04/10 13:18:01;;;;;;;6.30;1.65;;;;;;;;;;5048737;28;20162;-83
2022/04/10 13:20:28;;;;;;;6.05;1.98;;;;;;;;;;5059410;28;20043;-82
2022/04/10 13:22:54;;;;;;;7.15;1.30;;;;;;;;;;5046729;28;20578;-84
2022/04/10 13:25:20;;;;;;;9.80;1.17;;;;;;;;;;5060340;28;20036;-83
2022/04/10 13:27:46;;;;;;;6.53;1.30;;;;;;;;;;5043385;28;20561;-82
2022/04/10 13:30:12;;;;;;;3.55;1.10;;;;;;;;;;5059979;28;20072;-83
2022/04/10 13:32:38;;;;;;;6.38;1.40;;;;;;;;;;5039866;28;20037;-81
2022/04/10 13:35:05;;;;;;;5.57;1.23;;;;;;;;;;5044960;28;20035;-82
2022/04/10 13:37:31;;;;;;;5.03;1.20;;;;;;;;;;5059298;28;20040;-79
2022/04/10 13:39:57;;;;;;;4.90;1.13;;;;;;;;;;5060960;28;20037;-80
2022/04/10 13:42:23;;;;;;;4.55;0.88;;;;;;;;;;5047813;28;20097;-80
2022/04/10 13:44:51;;;;;;;4.32;1.08;;;;;;;;;;5043118;28;20123;-78
2022/04/10 13:47:17;;;;;;;7.30;1.60;;;;;;;;;;5046461;28;20619;-79
2022/04/10 13:49:43;;;;;;;5.95;1.30;;;;;;;;;;5057831;28;20113;-80
2022/04/10 13:52:09;;;;;;;5.90;1.40;;;;;;;;;;5046211;28;20032;-79
2022/04/10 13:54:36;;;;;;;5.50;1.45;;;;;;;;;;5063850;28;20068;-82
2022/04/10 13:57:03;;;;;;;4.10;1.58;;;;;;;;;;5068037;28;20065;-81
2022/04/10 13:59:29;;;;;;;6.18;1.42;;;;;;;;;;5063074;28;20029;-81
2022/04/10 14:01:55;;;;;;;5.68;1.30;;;;;;;;;;5061251;28;20033;-81
2022/04/10 14:04:21;;;;;;;4.75;1.45;;;;;;;;;;5041602;28;20033;-83
2022/04/10 14:06:47;;;;;;;3.33;1.08;;;;;;;;;;5059648;28;20394;-84
2022/04/10 14:09:13;;;;;;;4.63;1.15;;;;;;;;;;5068119;28;20138;-82
2022/04/10 14:11:41;;;;;;;2.83;1.00;;;;;;;;;;5073223;28;20092;-85
2022/04/10 14:14:07;;;;;;;4.00;1.15;;;;;;;;;;5065932;28;20045;-85
2022/04/10 14:16:33;;;;;;;3.80;0.93;;;;;;;;;;5040703;28;20554;-81
2022/04/10 14:18:59;;;;;;;5.03;1.55;;;;;;;;;;5041937;28;20060;-85
2022/04/10 14:21:25;;;;;;;5.63;1.40;;;;;;;;;;5066229;28;20036;-84
2022/04/10 14:23:52;;;;;;;7.45;1.73;;;;;;;;;;5054493;28;20489;-81
2022/04/10 14:26:18;;;;;;;5.18;1.20;;;;;;;;;;5071051;28;20024;-82
2022/04/10 14:28:44;;;;;;;9.98;1.30;;;;;;;;;;5044066;28;20083;-85
2022/04/10 14:31:10;;;;;;;7.47;1.25;;;;;;;;;;5036138;28;20036;-76
2022/04/10 14:33:36;;;;;;;3.70;1.00;;;;;;;;;;5050500;28;20036;-78
2022/04/10 14:36:03;;;;;;;5.53;1.75;;;;;;;;;;5068256;28;20060;-78
2022/04/10 14:38:29;;;;;;;5.82;1.30;;;;;;;;;;5050463;28;20397;-79
2022/04/10 14:40:55;;;;;;;4.72;1.20;;;;;;;;;;5065703;28;20205;-78
2022/04/10 14:43:21;;;;;;;8.00;1.42;;;;;;;;;;5064865;28;20016;-78
2022/04/10 14:45:50;;;;;;;4.25;1.38;;;;;;;;;;5059810;28;20086;-84